^^
Station Historical Data
Daily Summary for January 17, 2018 Units:  English    Metric   Both
« Previous Day
Next Day »
Daily Weekly Monthly Yearly Custom
  High: Low: Average:
Temperature: TemperatureF °F 67.5 °F 79.4 °F
Dew Point: DewpointF °F 41.5 °F 49 °F
Humidity: Humidity% 17% 37%
Wind Speed: WindSpeedMPHmph 0.0mph 1.8mph
Wind Gust: WindSpeedGustMPHmph - -
Wind- - SSE
Pressure: PressureIn in 29.60 in -
Precipitation: 0.00 in    
Historical Graphs
 
 
Tabular Data for January 17, 2018
Time Temperature Dew Point Pressure Wind Wind Speed Wind Gust Humidity Rainfall Rate (Hourly) solar Conditions
TemperatureF °F DewpointF °F PressureIn in Calm     Humidity% HourlyPrecipIn in SolarRadiationWatts/m^2 W/m2 Conditions
00:03 75.6 °F 50.2 °F 29.75 in East 0.9 mph 4.0 mph 41% 0.00 in 0.0 W/m2
00:08 75.6 °F 50.9 °F 29.75 in Calm   4.0 mph 42% 0.00 in 0.0 W/m2
00:13 75.6 °F 50.9 °F 29.75 in Calm   2.0 mph 42% 0.00 in 0.0 W/m2
00:18 75.4 °F 52.0 °F 29.75 in Calm   2.0 mph 44% 0.00 in 0.0 W/m2
00:24 75.0 °F 52.2 °F 29.74 in Calm   1.0 mph 45% 0.00 in 0.0 W/m2
00:30 74.8 °F 51.4 °F 29.74 in Calm     44% 0.00 in 0.0 W/m2
00:35 74.7 °F 52.0 °F 29.74 in Calm   4.0 mph 45% 0.00 in 0.0 W/m2
00:40 74.7 °F 51.3 °F 29.74 in Calm   1.0 mph 44% 0.00 in 0.0 W/m2
00:46 74.7 °F 49.5 °F 29.73 in SSW 0.9 mph 3.0 mph 41% 0.00 in 0.0 W/m2
00:55 75.0 °F 50.4 °F 29.73 in Calm   3.0 mph 42% 0.00 in 0.0 W/m2
01:00 75.0 °F 49.6 °F 29.73 in Calm   4.0 mph 41% 0.00 in 0.0 W/m2
01:04 75.2 °F 49.8 °F 29.72 in Calm   3.0 mph 41% 0.00 in 0.0 W/m2
01:05 75.4 °F 50.0 °F 29.73 in SW 2.9 mph 4.0 mph 41% 0.00 in 0.0 W/m2
01:10 75.4 °F 50.0 °F 29.73 in South 0.9 mph 2.0 mph 41% 0.00 in 0.0 W/m2
01:16 75.4 °F 50.0 °F 29.72 in Calm   1.0 mph 41% 0.00 in 0.0 W/m2
01:22 75.4 °F 50.0 °F 29.72 in Calm   1.0 mph 41% 0.00 in 0.0 W/m2
01:33 75.0 °F 50.4 °F 29.72 in Calm   3.0 mph 42% 0.00 in 0.0 W/m2
01:39 75.0 °F 50.4 °F 29.71 in Calm   1.0 mph 42% 0.00 in 0.0 W/m2
01:45 74.8 °F 50.2 °F 29.71 in Calm   2.0 mph 42% 0.00 in 0.0 W/m2
01:56 74.5 °F 51.1 °F 29.70 in Calm   5.0 mph 44% 0.00 in 0.0 W/m2
02:01 74.1 °F 51.4 °F 29.70 in SW 4.0 mph 6.0 mph 45% 0.00 in 0.0 W/m2
02:17 73.2 °F 51.8 °F 29.69 in SSW 4.9 mph 5.0 mph 47% 0.00 in 0.0 W/m2
02:22 73.0 °F 52.2 °F 29.69 in Calm   6.0 mph 48% 0.00 in 0.0 W/m2
02:31 72.9 °F 52.0 °F 29.68 in Calm   1.0 mph 48% 0.00 in 0.0 W/m2
02:36 72.7 °F 52.3 °F 29.68 in SSW 0.9 mph 1.0 mph 49% 0.00 in 0.0 W/m2
02:47 72.3 °F 51.4 °F 29.68 in Calm   3.0 mph 48% 0.00 in 0.0 W/m2
02:52 72.1 °F 51.4 °F 29.68 in Calm   2.0 mph 48% 0.00 in 0.0 W/m2
02:58 72.1 °F 51.4 °F 29.69 in Calm   1.0 mph 48% 0.00 in 0.0 W/m2
03:03 72.1 °F 51.4 °F 29.68 in Calm   1.0 mph 48% 0.00 in 0.0 W/m2
03:08 72.1 °F 51.4 °F 29.68 in Calm   2.0 mph 48% 0.00 in 0.0 W/m2
03:13 72.1 °F 51.4 °F 29.68 in Calm   3.0 mph 48% 0.00 in 0.0 W/m2
03:18 72.1 °F 50.7 °F 29.68 in Calm   3.0 mph 47% 0.00 in 0.0 W/m2
03:25 72.1 °F 50.7 °F 29.68 in Calm   1.0 mph 47% 0.00 in 0.0 W/m2
03:34 72.1 °F 50.7 °F 29.68 in Calm     47% 0.00 in 0.0 W/m2
03:39 72.1 °F 51.4 °F 29.68 in Calm     48% 0.00 in 0.0 W/m2
03:44 72.1 °F 51.4 °F 29.68 in Calm   1.0 mph 48% 0.00 in 0.0 W/m2
03:49 72.0 °F 52.3 °F 29.68 in Calm   2.0 mph 50% 0.00 in 0.0 W/m2
03:58 71.6 °F 52.5 °F 29.68 in Calm   2.0 mph 51% 0.00 in 0.0 W/m2
04:04 71.4 °F 52.9 °F 29.67 in Calm   1.0 mph 52% 0.00 in 0.0 W/m2
04:09 71.2 °F 52.7 °F 29.67 in Calm   1.0 mph 52% 0.00 in 0.0 W/m2
04:14 71.1 °F 52.5 °F 29.67 in Calm   2.0 mph 52% 0.00 in 0.0 W/m2
04:20 70.9 °F 52.3 °F 29.67 in Calm     52% 0.00 in 0.0 W/m2
04:26 70.9 °F 52.3 °F 29.67 in Calm     52% 0.00 in 0.0 W/m2
04:31 70.7 °F 52.7 °F 29.67 in Calm   1.0 mph 53% 0.00 in 0.0 W/m2
04:37 70.5 °F 52.5 °F 29.67 in Calm   1.0 mph 53% 0.00 in 0.0 W/m2
04:42 70.5 °F 52.5 °F 29.67 in Calm     53% 0.00 in 0.0 W/m2
04:47 70.5 °F 53.1 °F 29.67 in Calm     54% 0.00 in 0.0 W/m2
04:53 70.3 °F 52.9 °F 29.67 in Calm     54% 0.00 in 0.0 W/m2
05:02 70.3 °F 53.4 °F 29.67 in Calm     55% 0.00 in 0.0 W/m2
05:11 70.0 °F 53.6 °F 29.67 in Calm   1.0 mph 56% 0.00 in 0.0 W/m2
05:16 70.0 °F 53.6 °F 29.67 in Calm   2.0 mph 56% 0.00 in 0.0 W/m2
05:21 69.6 °F 53.8 °F 29.67 in Calm   1.0 mph 57% 0.00 in 0.0 W/m2
05:32 69.3 °F 53.8 °F 29.67 in ENE 0.9 mph 1.0 mph 58% 0.00 in 0.0 W/m2
05:37 69.1 °F 53.2 °F 29.67 in Calm   1.0 mph 57% 0.00 in 0.0 W/m2
05:42 68.9 °F 53.6 °F 29.67 in Calm     58% 0.00 in 0.0 W/m2
05:49 68.7 °F 52.9 °F 29.67 in Calm     57% 0.00 in 0.0 W/m2
05:54 68.5 °F 53.2 °F 29.67 in Calm   1.0 mph 58% 0.00 in 0.0 W/m2
05:59 68.4 °F 53.1 °F 29.67 in ENE 0.9 mph 2.0 mph 58% 0.00 in 0.0 W/m2
06:09 68.2 °F 52.9 °F 29.67 in Calm     58% 0.00 in 0.0 W/m2
06:15 68.0 °F 52.7 °F 29.67 in Calm     58% 0.00 in 0.0 W/m2
06:20 67.8 °F 52.9 °F 29.68 in Calm   1.0 mph 59% 0.00 in 0.0 W/m2
06:25 67.8 °F 52.9 °F 29.67 in Calm     59% 0.00 in 7.0 W/m2
06:30 67.8 °F 52.9 °F 29.67 in ENE 0.9 mph 1.0 mph 59% 0.00 in 7.0 W/m2
06:42 67.5 °F 53.1 °F 29.68 in Calm   1.0 mph 60% 0.00 in 19.0 W/m2
06:48 67.5 °F 52.7 °F 29.68 in Calm   4.0 mph 59% 0.00 in 32.0 W/m2
06:53 67.6 °F 52.9 °F 29.68 in Calm   2.0 mph 59% 0.00 in 39.0 W/m2
06:58 67.8 °F 52.9 °F 29.69 in ENE 0.9 mph 3.0 mph 59% 0.00 in 47.0 W/m2
07:04 67.8 °F 52.9 °F 29.69 in East 2.9 mph 3.0 mph 59% 0.00 in 60.0 W/m2
07:09 68.2 °F 53.2 °F 29.69 in Calm   2.0 mph 59% 0.00 in 65.0 W/m2
07:14 68.4 °F 53.4 °F 29.69 in East 0.9 mph 3.0 mph 59% 0.00 in 63.0 W/m2
07:19 68.5 °F 53.6 °F 29.69 in Calm   2.0 mph 59% 0.00 in 63.0 W/m2
07:26 68.9 °F 54.0 °F 29.70 in Calm     59% 0.00 in 72.0 W/m2
07:31 69.1 °F 54.1 °F 29.70 in Calm   3.0 mph 59% 0.00 in 86.0 W/m2
07:36 69.3 °F 53.8 °F 29.70 in Calm   3.0 mph 58% 0.00 in 104.0 W/m2
07:41 69.4 °F 53.6 °F 29.70 in Calm   2.0 mph 57% 0.00 in 98.0 W/m2
07:46 69.6 °F 54.1 °F 29.70 in Calm   3.0 mph 58% 0.00 in 90.0 W/m2
07:51 70.0 °F 54.0 °F 29.70 in Calm   2.0 mph 57% 0.00 in 199.0 W/m2
07:57 70.5 °F 53.1 °F 29.70 in Calm   1.0 mph 54% 0.00 in 281.0 W/m2
08:03 71.1 °F 54.1 °F 29.70 in Calm     55% 0.00 in 107.0 W/m2
08:08 71.6 °F 55.0 °F 29.70 in Calm     56% 0.00 in 139.0 W/m2
08:17 72.3 °F 54.1 °F 29.69 in Calm     53% 0.00 in 429.0 W/m2
08:22 73.2 °F 51.8 °F 29.70 in Calm     47% 0.00 in 239.0 W/m2
08:27 73.9 °F 52.5 °F 29.69 in Calm   1.0 mph 47% 0.00 in 149.0 W/m2
08:32 74.7 °F 53.1 °F 29.70 in Calm     47% 0.00 in 167.0 W/m2
08:37 74.8 °F 53.2 °F 29.70 in Calm   1.0 mph 47% 0.00 in 213.0 W/m2
08:49 75.9 °F 54.3 °F 29.70 in Calm     47% 0.00 in 299.0 W/m2
08:54 76.6 °F 53.1 °F 29.70 in Calm   1.0 mph 44% 0.00 in 283.0 W/m2
08:59 77.2 °F 52.3 °F 29.70 in SW 0.9 mph 2.0 mph 42% 0.00 in 417.0 W/m2
09:04 78.1 °F 51.8 °F 29.70 in Calm   2.0 mph 40% 0.00 in 673.0 W/m2
09:09 79.2 °F 49.1 °F 29.70 in Calm   1.0 mph 35% 0.00 in 744.0 W/m2
09:18 81.7 °F 48.0 °F 29.70 in SE 2.9 mph 8.0 mph 31% 0.00 in 807.0 W/m2
09:23 83.3 °F 48.6 °F 29.70 in ESE 6.0 mph 7.0 mph 30% 0.00 in 849.0 W/m2
09:28 84.0 °F 47.5 °F 29.70 in SSE 8.9 mph 10.0 mph 28% 0.00 in 684.0 W/m2
09:33 84.6 °F 47.8 °F 29.70 in East 4.0 mph 11.0 mph 28% 0.00 in 721.0 W/m2
09:45 85.3 °F 48.6 °F 29.70 in SE 4.9 mph 7.0 mph 28% 0.00 in 729.0 W/m2
09:50 85.5 °F 46.6 °F 29.70 in SE 2.0 mph 8.0 mph 26% 0.00 in 406.0 W/m2
09:56 85.8 °F 48.0 °F 29.70 in SSE 4.9 mph 9.0 mph 27% 0.00 in 907.0 W/m2
10:01 86.5 °F 48.6 °F 29.70 in SSW 4.0 mph 7.0 mph 27% 0.00 in 912.0 W/m2
10:06 87.1 °F 46.9 °F 29.70 in SSW 4.9 mph 11.0 mph 25% 0.00 in 951.0 W/m2
10:11 87.4 °F 47.3 °F 29.70 in SSE 10.1 mph 10.1 mph 25% 0.00 in 1009.0 W/m2
10:16 87.4 °F 46.2 °F 29.70 in NE 4.9 mph 6.0 mph 24% 0.00 in 705.0 W/m2
10:21 87.3 °F 47.1 °F 29.70 in East 0.9 mph 10.0 mph 25% 0.00 in 288.0 W/m2
10:27 86.7 °F 47.7 °F 29.70 in ESE 4.0 mph 8.0 mph 26% 0.00 in 308.0 W/m2
10:32 86.4 °F 46.4 °F 29.70 in ESE 10.1 mph 10.1 mph 25% 0.00 in 357.0 W/m2
10:40 86.9 °F 46.8 °F 29.70 in ENE 2.0 mph 4.0 mph 25% 0.00 in 993.0 W/m2
10:46 88.0 °F 46.6 °F 29.70 in ESE 4.9 mph 7.0 mph 24% 0.00 in 946.0 W/m2
10:51 88.3 °F 46.9 °F 29.70 in Calm   1.0 mph 24% 0.00 in 979.0 W/m2
11:00 88.5 °F 47.1 °F 29.70 in SSE 6.0 mph 9.0 mph 24% 0.00 in 986.0 W/m2
11:05 88.5 °F 47.1 °F 29.70 in NE 2.0 mph 5.0 mph 24% 0.00 in 998.0 W/m2
11:13 89.6 °F 48.0 °F 29.70 in North 4.9 mph 6.0 mph 24% 0.00 in 1014.0 W/m2
11:18 90.3 °F 47.5 °F 29.70 in ESE 0.9 mph 9.0 mph 23% 0.00 in 1028.0 W/m2
11:23 90.7 °F 48.9 °F 29.70 in SE 0.9 mph 8.0 mph 24% 0.00 in 1035.0 W/m2
11:28 90.7 °F 46.6 °F 29.70 in West 0.9 mph 2.0 mph 22% 0.00 in 1065.0 W/m2
11:33 90.1 °F 47.3 °F 29.70 in NE 4.0 mph 7.0 mph 23% 0.00 in 1093.0 W/m2
11:38 90.3 °F 47.5 °F 29.70 in North 2.0 mph 6.0 mph 23% 0.00 in 1132.0 W/m2
11:43 90.5 °F 46.4 °F 29.70 in NE 4.0 mph 5.0 mph 22% 0.00 in 1188.0 W/m2
11:48 90.3 °F 47.5 °F 29.70 in NNE 4.0 mph 6.0 mph 23% 0.00 in 279.0 W/m2
11:53 90.0 °F 47.1 °F 29.70 in NNE 4.0 mph 4.0 mph 23% 0.00 in 1134.0 W/m2
11:59 90.0 °F 47.1 °F 29.70 in Calm   2.0 mph 23% 0.00 in 1151.0 W/m2
12:04 90.1 °F 48.6 °F 29.70 in ENE 4.0 mph 8.0 mph 24% 0.00 in 1179.0 W/m2
12:15 91.9 °F 46.4 °F 29.69 in NNW 6.9 mph 10.0 mph 21% 0.00 in 1157.0 W/m2
12:25 91.8 °F 47.5 °F 29.69 in NNW 4.0 mph 8.0 mph 22% 0.00 in 1125.0 W/m2
12:30 91.8 °F 46.2 °F 29.69 in NW 4.9 mph 15.0 mph 21% 0.00 in 1146.0 W/m2
12:36 92.5 °F 45.5 °F 29.69 in Calm   5.0 mph 20% 0.00 in 1176.0 W/m2
12:45 92.7 °F 45.7 °F 29.68 in North 4.9 mph 9.0 mph 20% 0.00 in 810.0 W/m2
12:50 92.7 °F 45.7 °F 29.68 in NE 2.0 mph 6.0 mph 20% 0.00 in 1208.0 W/m2
12:55 92.8 °F 47.1 °F 29.68 in Calm   1.0 mph 21% 0.00 in 292.0 W/m2
13:00 92.7 °F 46.9 °F 29.67 in NNE 2.0 mph 6.0 mph 21% 0.00 in 357.0 W/m2
13:05 92.5 °F 46.9 °F 29.67 in East 2.9 mph 6.0 mph 21% 0.00 in 909.0 W/m2
13:10 92.5 °F 45.5 °F 29.67 in SSE 2.9 mph 6.0 mph 20% 0.00 in 810.0 W/m2
13:15 92.1 °F 45.3 °F 29.67 in North 10.1 mph 14.0 mph 20% 0.00 in 645.0 W/m2
13:20 91.9 °F 45.1 °F 29.67 in NNE 2.0 mph 8.0 mph 20% 0.00 in 1245.0 W/m2
13:29 93.2 °F 46.2 °F 29.67 in ESE 2.0 mph 8.0 mph 20% 0.00 in 937.0 W/m2
13:34 93.2 °F 44.8 °F 29.67 in SSW 4.0 mph 4.0 mph 19% 0.00 in 974.0 W/m2
13:40 92.7 °F 44.4 °F 29.67 in Calm   7.0 mph 19% 0.00 in 1429.0 W/m2
13:45 92.1 °F 43.9 °F 29.66 in Calm   3.0 mph 19% 0.00 in 515.0 W/m2
13:50 92.5 °F 44.2 °F 29.66 in ESE 6.0 mph 7.0 mph 19% 0.00 in 513.0 W/m2
13:55 92.5 °F 45.5 °F 29.66 in SE 0.9 mph 10.0 mph 20% 0.00 in 457.0 W/m2
14:00 92.5 °F 44.2 °F 29.66 in ENE 0.9 mph 3.0 mph 19% 0.00 in 557.0 W/m2
14:08 92.5 °F 44.2 °F 29.65 in WNW 0.9 mph 3.0 mph 19% 0.00 in 547.0 W/m2
14:13 92.7 °F 45.7 °F 29.65 in Calm   7.0 mph 20% 0.00 in 598.0 W/m2
14:18 92.5 °F 45.5 °F 29.65 in West 2.0 mph 3.0 mph 20% 0.00 in 1341.0 W/m2
14:27 93.0 °F 46.0 °F 29.64 in NNE 2.0 mph 9.0 mph 20% 0.00 in 1308.0 W/m2
14:33 93.9 °F 44.1 °F 29.64 in SW 0.9 mph 2.0 mph 18% 0.00 in 403.0 W/m2
14:38 93.9 °F 45.3 °F 29.64 in South 0.9 mph 2.0 mph 19% 0.00 in 348.0 W/m2
14:43 93.4 °F 43.5 °F 29.64 in WNW 0.9 mph 3.0 mph 18% 0.00 in 329.0 W/m2
14:48 92.7 °F 43.0 °F 29.64 in ENE 4.0 mph 4.0 mph 18% 0.00 in 369.0 W/m2
14:53 92.5 °F 42.8 °F 29.63 in Calm   3.0 mph 18% 0.00 in 420.0 W/m2
15:02 92.7 °F 41.5 °F 29.63 in NNW 2.9 mph 6.0 mph 17% 0.00 in 417.0 W/m2
15:13 92.7 °F 41.5 °F 29.63 in Calm   2.0 mph 17% 0.00 in 366.0 W/m2
15:18 92.5 °F 42.8 °F 29.62 in South 2.0 mph 6.0 mph 18% 0.00 in 329.0 W/m2
15:23 92.1 °F 42.4 °F 29.62 in ESE 0.9 mph 8.0 mph 18% 0.00 in 299.0 W/m2
15:28 91.9 °F 42.4 °F 29.62 in SE 0.9 mph 5.0 mph 18% 0.00 in 371.0 W/m2
15:35 92.3 °F 42.6 °F 29.62 in ESE 4.0 mph 8.0 mph 18% 0.00 in 404.0 W/m2
15:40 92.3 °F 42.6 °F 29.62 in Calm   10.0 mph 18% 0.00 in 355.0 W/m2
15:49 91.9 °F 43.7 °F 29.61 in SSW 4.0 mph 5.0 mph 19% 0.00 in 480.0 W/m2
15:54 91.8 °F 42.3 °F 29.61 in SSW 2.0 mph 6.0 mph 18% 0.00 in 547.0 W/m2
16:00 92.1 °F 42.4 °F 29.61 in SSW 0.9 mph 3.0 mph 18% 0.00 in 925.0 W/m2
16:05 92.5 °F 42.8 °F 29.61 in Calm   3.0 mph 18% 0.00 in 617.0 W/m2
16:13 93.2 °F 44.8 °F 29.60 in ENE 4.9 mph 9.0 mph 19% 0.00 in 380.0 W/m2
16:18 93.2 °F 44.8 °F 29.60 in NNE 2.9 mph 7.0 mph 19% 0.00 in 415.0 W/m2
16:23 92.8 °F 44.6 °F 29.60 in Calm   5.0 mph 19% 0.00 in 97.0 W/m2
16:30 91.9 °F 43.7 °F 29.60 in SE 0.9 mph 7.0 mph 19% 0.00 in 70.0 W/m2
16:35 91.6 °F 43.5 °F 29.60 in SW 2.0 mph 2.0 mph 19% 0.00 in 56.0 W/m2
16:44 88.3 °F 45.9 °F 29.62 in West 8.9 mph 11.0 mph 23% 0.00 in 47.0 W/m2
16:50 86.7 °F 46.8 °F 29.62 in West 6.9 mph 9.0 mph 25% 0.00 in 58.0 W/m2
16:55 84.9 °F 50.0 °F 29.62 in West 8.9 mph 12.0 mph 30% 0.00 in 76.0 W/m2
17:00 83.7 °F 51.4 °F 29.62 in WNW 2.0 mph 9.0 mph 33% 0.00 in 102.0 W/m2
17:07 82.0 °F 50.2 °F 29.61 in WNW 0.9 mph 10.0 mph 33% 0.00 in 128.0 W/m2
17:12 81.7 °F 48.9 °F 29.61 in West 2.9 mph 5.0 mph 32% 0.00 in 134.0 W/m2
17:17 81.5 °F 50.4 °F 29.61 in West 4.9 mph 6.0 mph 34% 0.00 in 130.0 W/m2
17:22 81.0 °F 52.2 °F 29.61 in WSW 0.9 mph 5.0 mph 37% 0.00 in 120.0 W/m2
17:32 80.4 °F 51.1 °F 29.61 in West 2.0 mph 4.0 mph 36% 0.00 in 109.0 W/m2
17:37 80.8 °F 50.5 °F 29.61 in Calm   5.0 mph 35% 0.00 in 109.0 W/m2
17:43 81.0 °F 50.0 °F 29.61 in SSW 2.0 mph 6.0 mph 34% 0.00 in 95.0 W/m2
17:48 81.1 °F 52.3 °F 29.62 in South 2.0 mph 5.0 mph 37% 0.00 in 70.0 W/m2
17:53 81.0 °F 52.2 °F 29.62 in SSW 2.9 mph 4.0 mph 37% 0.00 in 47.0 W/m2
17:58 81.0 °F 51.4 °F 29.62 in Calm   2.0 mph 36% 0.00 in 35.0 W/m2
18:03 80.8 °F 50.5 °F 29.62 in WSW 2.0 mph 5.0 mph 35% 0.00 in 30.0 W/m2
18:13 80.8 °F 48.9 °F 29.62 in SSE 8.9 mph 13.0 mph 33% 0.00 in 37.0 W/m2
18:18 80.8 °F 49.8 °F 29.62 in SSW 4.9 mph 8.0 mph 34% 0.00 in 47.0 W/m2
18:23 80.4 °F 50.2 °F 29.62 in WSW 4.0 mph 10.0 mph 35% 0.00 in 51.0 W/m2
18:31 79.9 °F 49.8 °F 29.61 in WSW 2.9 mph 4.0 mph 35% 0.00 in 44.0 W/m2
18:37 79.9 °F 48.9 °F 29.61 in Calm   2.0 mph 34% 0.00 in 40.0 W/m2
18:42 79.9 °F 48.9 °F 29.61 in Calm   3.0 mph 34% 0.00 in 37.0 W/m2
18:47 79.9 °F 49.8 °F 29.61 in North 2.0 mph 4.0 mph 35% 0.00 in 33.0 W/m2
18:53 80.1 °F 49.1 °F 29.62 in North 4.9 mph 8.0 mph 34% 0.00 in 25.0 W/m2
18:58 79.9 °F 48.9 °F 29.62 in Calm   4.0 mph 34% 0.00 in 19.0 W/m2
19:05 79.9 °F 48.2 °F 29.63 in Calm   3.0 mph 33% 0.00 in 21.0 W/m2
19:10 79.9 °F 48.9 °F 29.63 in ESE 2.9 mph 3.0 mph 34% 0.00 in 23.0 W/m2
19:21 79.7 °F 49.6 °F 29.63 in ESE 4.9 mph 7.0 mph 35% 0.00 in 18.0 W/m2
19:26 79.5 °F 49.5 °F 29.63 in Calm   5.0 mph 35% 0.00 in 16.0 W/m2
19:32 79.5 °F 48.7 °F 29.64 in East 2.0 mph 3.0 mph 34% 0.00 in 12.0 W/m2
19:37 79.3 °F 48.6 °F 29.64 in SE 2.0 mph 4.0 mph 34% 0.00 in 9.0 W/m2
19:42 79.3 °F 48.6 °F 29.65 in SE 2.0 mph 5.0 mph 34% 0.00 in 5.0 W/m2
19:47 79.2 °F 48.4 °F 29.65 in ESE 2.0 mph 5.0 mph 34% 0.00 in 0.0 W/m2
19:52 79.0 °F 48.9 °F 29.65 in SSE 0.9 mph 8.0 mph 35% 0.00 in 0.0 W/m2
19:59 78.4 °F 49.3 °F 29.66 in South 0.9 mph 6.0 mph 36% 0.00 in 0.0 W/m2
20:06 78.3 °F 49.1 °F 29.67 in ESE 4.0 mph 6.0 mph 36% 0.00 in 0.0 W/m2
20:12 78.1 °F 50.4 °F 29.67 in SSE 4.0 mph 14.0 mph 38% 0.00 in 0.0 W/m2
20:17 77.7 °F 50.0 °F 29.67 in Calm   6.0 mph 38% 0.00 in 0.0 W/m2
20:22 77.5 °F 50.0 °F 29.67 in SE 2.9 mph 4.0 mph 38% 0.00 in 0.0 W/m2
20:28 77.4 °F 49.1 °F 29.67 in Calm   6.0 mph 37% 0.00 in 0.0 W/m2
20:33 77.4 °F 49.8 °F 29.67 in SSE 4.0 mph 10.0 mph 38% 0.00 in 0.0 W/m2
20:38 77.4 °F 50.5 °F 29.67 in SE 8.1 mph 10.0 mph 39% 0.00 in 0.0 W/m2
20:43 77.0 °F 50.9 °F 29.67 in Calm   10.0 mph 40% 0.00 in 0.0 W/m2
20:48 76.6 °F 50.5 °F 29.66 in SSW 0.9 mph 11.0 mph 40% 0.00 in 0.0 W/m2
20:53 76.5 °F 50.4 °F 29.66 in SSE 4.0 mph 7.0 mph 40% 0.00 in 0.0 W/m2
20:58 76.3 °F 50.9 °F 29.66 in SE 6.9 mph 8.0 mph 41% 0.00 in 0.0 W/m2
21:04 76.1 °F 50.0 °F 29.66 in SSW 2.9 mph 8.0 mph 40% 0.00 in 0.0 W/m2
21:09 75.9 °F 49.8 °F 29.66 in South 4.0 mph 7.0 mph 40% 0.00 in 0.0 W/m2
21:14 75.7 °F 50.4 °F 29.66 in South 0.9 mph 9.0 mph 41% 0.00 in 0.0 W/m2
21:19 75.7 °F 50.4 °F 29.66 in SSW 2.0 mph 9.0 mph 41% 0.00 in 0.0 W/m2
21:24 75.6 °F 50.2 °F 29.66 in SSW 0.9 mph 8.0 mph 41% 0.00 in 0.0 W/m2
21:29 75.4 °F 50.7 °F 29.66 in SE 4.9 mph 6.0 mph 42% 0.00 in 0.0 W/m2
21:39 75.0 °F 51.1 °F 29.66 in South 2.0 mph 5.0 mph 43% 0.00 in 0.0 W/m2
21:44 74.8 °F 50.2 °F 29.67 in Calm   5.0 mph 42% 0.00 in 0.0 W/m2
21:50 74.8 °F 49.6 °F 29.67 in SSE 4.0 mph 7.0 mph 41% 0.00 in 0.0 W/m2
21:55 75.0 °F 48.4 °F 29.67 in ENE 4.0 mph 8.0 mph 39% 0.00 in 0.0 W/m2
22:00 75.4 °F 48.0 °F 29.67 in East 6.0 mph 12.0 mph 38% 0.00 in 0.0 W/m2
22:06 75.9 °F 48.6 °F 29.67 in East 6.0 mph 9.0 mph 38% 0.00 in 0.0 W/m2
22:12 76.1 °F 48.0 °F 29.67 in Calm   11.0 mph 37% 0.00 in 0.0 W/m2
22:17 76.3 °F 47.3 °F 29.67 in SE 6.9 mph 15.0 mph 36% 0.00 in 0.0 W/m2
22:23 76.5 °F 47.5 °F 29.67 in NE 4.9 mph 14.0 mph 36% 0.00 in 0.0 W/m2
22:28 76.6 °F 47.7 °F 29.68 in East 0.9 mph 5.0 mph 36% 0.00 in 0.0 W/m2
22:34 76.6 °F 47.7 °F 29.68 in East 0.9 mph 5.0 mph 36% 0.00 in 0.0 W/m2
22:41 76.8 °F 47.1 °F 29.68 in Calm   10.0 mph 35% 0.00 in 0.0 W/m2
22:47 77.2 °F 47.5 °F 29.68 in ESE 0.9 mph 3.0 mph 35% 0.00 in 0.0 W/m2
22:52 77.2 °F 47.5 °F 29.68 in Calm   3.0 mph 35% 0.00 in 0.0 W/m2
22:57 77.2 °F 47.5 °F 29.68 in NE 0.9 mph 4.0 mph 35% 0.00 in 0.0 W/m2
23:03 77.2 °F 47.5 °F 29.68 in Calm   3.0 mph 35% 0.00 in 0.0 W/m2
23:09 77.2 °F 47.5 °F 29.68 in Calm   2.0 mph 35% 0.00 in 0.0 W/m2
23:11 77.2 °F 47.5 °F 29.68 in Calm   3.0 mph 35% 0.00 in 0.0 W/m2
23:16 77.0 °F 47.3 °F 29.68 in Calm   2.0 mph 35% 0.00 in 0.0 W/m2
23:20 77.0 °F 47.3 °F 29.68 in Calm   1.0 mph 35% 0.00 in 0.0 W/m2
23:26 77.0 °F 47.3 °F 29.68 in NE 0.9 mph 4.0 mph 35% 0.00 in 0.0 W/m2
23:27 77.0 °F 47.3 °F 29.68 in Calm   2.0 mph 35% 0.00 in 0.0 W/m2
23:29 77.0 °F 47.3 °F 29.68 in ESE 0.9 mph 3.0 mph 35% 0.00 in 0.0 W/m2
23:32 77.2 °F 47.5 °F 29.68 in ENE 0.9 mph 3.0 mph 35% 0.00 in 0.0 W/m2
23:33 77.2 °F 47.5 °F 29.68 in Calm   4.0 mph 35% 0.00 in 0.0 W/m2
23:34 77.2 °F 47.5 °F 29.68 in ENE 2.9 mph 4.0 mph 35% 0.00 in 0.0 W/m2
23:39 77.4 °F 46.8 °F 29.68 in Calm   4.0 mph 34% 0.00 in 0.0 W/m2
23:40 77.4 °F 46.8 °F 29.68 in ESE 2.0 mph 6.0 mph 34% 0.00 in 0.0 W/m2
23:45 77.5 °F 48.6 °F 29.68 in ENE 6.0 mph 9.0 mph 36% 0.00 in 0.0 W/m2
23:47 77.5 °F 48.6 °F 29.69 in East 2.9 mph 6.0 mph 36% 0.00 in 0.0 W/m2
23:51 77.5 °F 50.0 °F 29.69 in ENE 0.9 mph 2.0 mph 38% 0.00 in 0.0 W/m2
23:56 77.4 °F 52.5 °F 29.68 in East 0.9 mph 3.0 mph 42% 0.00 in 0.0 W/m2
Olympia, Windhoek, Namibia
Compliments of Weather Underground - 3.25 mb